sensor_id;sensor_type;location;lat;lon;timestamp;P1;durP1;ratioP1;P2;durP2;ratioP2
16426;SDS011;8322;-33.900;151.170;2023-04-01T00:01:49;2.85;;;1.13;;
16426;SDS011;8322;-33.900;151.170;2023-04-01T00:04:18;4.93;;;1.20;;
16426;SDS011;8322;-33.900;151.170;2023-04-01T00:06:48;2.55;;;1.27;;
16426;SDS011;8322;-33.900;151.170;2023-04-01T00:09:17;4.43;;;1.23;;
16426;SDS011;8322;-33.900;151.170;2023-04-01T00:11:47;3.90;;;1.30;;
16426;SDS011;8322;-33.900;151.170;2023-04-01T00:14:16;3.47;;;1.30;;
16426;SDS011;8322;-33.900;151.170;2023-04-01T00:16:47;4.25;;;1.10;;
16426;SDS011;8322;-33.900;151.170;2023-04-01T00:19:21;4.45;;;1.27;;
16426;SDS011;8322;-33.900;151.170;2023-04-01T00:21:50;3.25;;;1.20;;
16426;SDS011;8322;-33.900;151.170;2023-04-01T00:24:20;3.35;;;1.10;;
16426;SDS011;8322;-33.900;151.170;2023-04-01T00:26:49;3.35;;;1.20;;
16426;SDS011;8322;-33.900;151.170;2023-04-01T00:29:19;4.28;;;1.20;;
16426;SDS011;8322;-33.900;151.170;2023-04-01T00:31:51;6.70;;;1.30;;
16426;SDS011;8322;-33.900;151.170;2023-04-01T00:34:21;2.10;;;1.33;;
16426;SDS011;8322;-33.900;151.170;2023-04-01T00:36:51;4.78;;;1.27;;
16426;SDS011;8322;-33.900;151.170;2023-04-01T00:39:21;5.25;;;1.65;;
16426;SDS011;8322;-33.900;151.170;2023-04-01T00:41:50;4.95;;;1.38;;
16426;SDS011;8322;-33.900;151.170;2023-04-01T00:44:20;4.88;;;1.95;;
16426;SDS011;8322;-33.900;151.170;2023-04-01T00:46:52;5.97;;;1.27;;
16426;SDS011;8322;-33.900;151.170;2023-04-01T00:49:22;4.35;;;2.03;;
16426;SDS011;8322;-33.900;151.170;2023-04-01T00:51:53;5.18;;;1.77;;
16426;SDS011;8322;-33.900;151.170;2023-04-01T00:54:24;4.65;;;1.55;;
16426;SDS011;8322;-33.900;151.170;2023-04-01T00:56:55;5.35;;;1.70;;
16426;SDS011;8322;-33.900;151.170;2023-04-01T00:59:26;4.40;;;1.50;;
16426;SDS011;8322;-33.900;151.170;2023-04-01T01:01:58;5.95;;;1.80;;
16426;SDS011;8322;-33.900;151.170;2023-04-01T01:04:28;9.57;;;2.20;;
16426;SDS011;8322;-33.900;151.170;2023-04-01T01:07:00;10.10;;;2.45;;
16426;SDS011;8322;-33.900;151.170;2023-04-01T01:09:35;5.40;;;1.80;;
16426;SDS011;8322;-33.900;151.170;2023-04-01T01:12:08;6.53;;;2.08;;
16426;SDS011;8322;-33.900;151.170;2023-04-01T01:14:44;6.63;;;1.85;;
16426;SDS011;8322;-33.900;151.170;2023-04-01T01:17:18;8.23;;;2.25;;
16426;SDS011;8322;-33.900;151.170;2023-04-01T01:19:55;8.68;;;2.25;;
16426;SDS011;8322;-33.900;151.170;2023-04-01T01:22:34;10.88;;;2.15;;
16426;SDS011;8322;-33.900;151.170;2023-04-01T01:25:09;8.45;;;2.20;;
16426;SDS011;8322;-33.900;151.170;2023-04-01T01:27:43;7.70;;;2.20;;
16426;SDS011;8322;-33.900;151.170;2023-04-01T01:30:22;6.65;;;1.80;;
16426;SDS011;8322;-33.900;151.170;2023-04-01T01:33:01;6.25;;;1.60;;
16426;SDS011;8322;-33.900;151.170;2023-04-01T01:35:37;7.38;;;1.83;;
16426;SDS011;8322;-33.900;151.170;2023-04-01T01:38:08;7.10;;;2.10;;
16426;SDS011;8322;-33.900;151.170;2023-04-01T01:40:39;7.82;;;1.85;;
16426;SDS011;8322;-33.900;151.170;2023-04-01T01:43:11;8.68;;;2.25;;
16426;SDS011;8322;-33.900;151.170;2023-04-01T01:45:43;7.85;;;2.05;;
16426;SDS011;8322;-33.900;151.170;2023-04-01T01:48:13;4.78;;;1.80;;
16426;SDS011;8322;-33.900;151.170;2023-04-01T01:50:46;9.30;;;2.28;;
16426;SDS011;8322;-33.900;151.170;2023-04-01T01:53:16;7.15;;;2.38;;
16426;SDS011;8322;-33.900;151.170;2023-04-01T01:55:47;8.82;;;2.72;;
16426;SDS011;8322;-33.900;151.170;2023-04-01T01:58:17;9.18;;;2.63;;
16426;SDS011;8322;-33.900;151.170;2023-04-01T02:00:49;7.40;;;2.53;;
16426;SDS011;8322;-33.900;151.170;2023-04-01T02:03:19;8.73;;;2.17;;
16426;SDS011;8322;-33.900;151.170;2023-04-01T02:05:52;7.50;;;2.28;;
16426;SDS011;8322;-33.900;151.170;2023-04-01T02:08:25;7.07;;;2.10;;
16426;SDS011;8322;-33.900;151.170;2023-04-01T02:10:55;11.60;;;2.30;;
16426;SDS011;8322;-33.900;151.170;2023-04-01T02:13:27;7.13;;;1.90;;
16426;SDS011;8322;-33.900;151.170;2023-04-01T02:15:59;6.85;;;2.30;;
16426;SDS011;8322;-33.900;151.170;2023-04-01T02:18:30;5.18;;;2.10;;
16426;SDS011;8322;-33.900;151.170;2023-04-01T02:21:05;8.18;;;1.73;;
16426;SDS011;8322;-33.900;151.170;2023-04-01T02:23:35;8.60;;;2.00;;
16426;SDS011;8322;-33.900;151.170;2023-04-01T02:26:05;7.40;;;1.90;;
16426;SDS011;8322;-33.900;151.170;2023-04-01T02:28:35;7.13;;;1.88;;
16426;SDS011;8322;-33.900;151.170;2023-04-01T02:31:06;9.38;;;2.35;;
16426;SDS011;8322;-33.900;151.170;2023-04-01T02:33:37;7.95;;;2.10;;
16426;SDS011;8322;-33.900;151.170;2023-04-01T02:36:12;10.73;;;2.00;;
16426;SDS011;8322;-33.900;151.170;2023-04-01T02:38:44;8.38;;;1.70;;
16426;SDS011;8322;-33.900;151.170;2023-04-01T02:41:14;9.48;;;2.03;;
16426;SDS011;8322;-33.900;151.170;2023-04-01T02:43:44;9.73;;;1.90;;
16426;SDS011;8322;-33.900;151.170;2023-04-01T02:46:13;6.07;;;2.00;;
16426;SDS011;8322;-33.900;151.170;2023-04-01T02:48:42;7.43;;;2.30;;
16426;SDS011;8322;-33.900;151.170;2023-04-01T02:51:14;7.68;;;1.88;;
16426;SDS011;8322;-33.900;151.170;2023-04-01T02:53:43;5.25;;;1.85;;
16426;SDS011;8322;-33.900;151.170;2023-04-01T02:56:13;8.07;;;2.10;;
16426;SDS011;8322;-33.900;151.170;2023-04-01T02:58:42;6.53;;;2.38;;
16426;SDS011;8322;-33.900;151.170;2023-04-01T03:01:12;8.98;;;2.22;;
16426;SDS011;8322;-33.900;151.170;2023-04-01T03:03:41;9.52;;;2.33;;
16426;SDS011;8322;-33.900;151.170;2023-04-01T03:06:11;7.22;;;2.08;;
16426;SDS011;8322;-33.900;151.170;2023-04-01T03:08:42;8.70;;;1.92;;
16426;SDS011;8322;-33.900;151.170;2023-04-01T03:11:12;8.48;;;1.90;;
16426;SDS011;8322;-33.900;151.170;2023-04-01T03:13:42;7.45;;;1.88;;
16426;SDS011;8322;-33.900;151.170;2023-04-01T03:16:11;7.40;;;2.13;;
16426;SDS011;8322;-33.900;151.170;2023-04-01T03:18:41;6.88;;;1.50;;
16426;SDS011;8322;-33.900;151.170;2023-04-01T03:21:14;6.68;;;1.48;;
16426;SDS011;8322;-33.900;151.170;2023-04-01T03:23:45;13.13;;;1.90;;
16426;SDS011;8322;-33.900;151.170;2023-04-01T03:26:15;8.73;;;1.67;;
16426;SDS011;8322;-33.900;151.170;2023-04-01T03:28:44;8.38;;;1.83;;
16426;SDS011;8322;-33.900;151.170;2023-04-01T03:31:14;8.45;;;1.95;;
16426;SDS011;8322;-33.900;151.170;2023-04-01T03:33:43;8.55;;;1.70;;
16426;SDS011;8322;-33.900;151.170;2023-04-01T03:36:13;9.23;;;1.98;;
16426;SDS011;8322;-33.900;151.170;2023-04-01T03:38:43;6.40;;;1.95;;
16426;SDS011;8322;-33.900;151.170;2023-04-01T03:41:14;10.48;;;2.15;;
16426;SDS011;8322;-33.900;151.170;2023-04-01T03:43:45;5.35;;;1.83;;
16426;SDS011;8322;-33.900;151.170;2023-04-01T03:46:17;10.43;;;1.90;;
16426;SDS011;8322;-33.900;151.170;2023-04-01T03:48:46;5.30;;;1.77;;
16426;SDS011;8322;-33.900;151.170;2023-04-01T03:51:16;7.50;;;1.90;;
16426;SDS011;8322;-33.900;151.170;2023-04-01T03:53:45;7.95;;;2.20;;
16426;SDS011;8322;-33.900;151.170;2023-04-01T03:56:16;9.57;;;2.25;;
16426;SDS011;8322;-33.900;151.170;2023-04-01T03:58:46;6.43;;;1.88;;
16426;SDS011;8322;-33.900;151.170;2023-04-01T04:01:18;8.18;;;1.80;;
16426;SDS011;8322;-33.900;151.170;2023-04-01T04:03:48;10.75;;;1.90;;
16426;SDS011;8322;-33.900;151.170;2023-04-01T04:06:18;8.32;;;2.15;;
16426;SDS011;8322;-33.900;151.170;2023-04-01T04:08:48;5.82;;;1.58;;
16426;SDS011;8322;-33.900;151.170;2023-04-01T04:11:20;6.90;;;2.10;;
16426;SDS011;8322;-33.900;151.170;2023-04-01T04:13:49;6.32;;;2.03;;
16426;SDS011;8322;-33.900;151.170;2023-04-01T04:16:19;8.73;;;2.10;;
16426;SDS011;8322;-33.900;151.170;2023-04-01T04:18:48;6.03;;;1.90;;
16426;SDS011;8322;-33.900;151.170;2023-04-01T04:21:18;9.18;;;2.88;;
16426;SDS011;8322;-33.900;151.170;2023-04-01T04:23:48;7.25;;;1.80;;
16426;SDS011;8322;-33.900;151.170;2023-04-01T04:26:19;3.78;;;1.65;;
16426;SDS011;8322;-33.900;151.170;2023-04-01T04:28:49;5.40;;;1.80;;
16426;SDS011;8322;-33.900;151.170;2023-04-01T04:31:19;7.75;;;1.85;;
16426;SDS011;8322;-33.900;151.170;2023-04-01T04:33:48;4.05;;;1.30;;
16426;SDS011;8322;-33.900;151.170;2023-04-01T04:36:18;6.55;;;1.92;;
16426;SDS011;8322;-33.900;151.170;2023-04-01T04:38:48;6.78;;;1.70;;
16426;SDS011;8322;-33.900;151.170;2023-04-01T04:41:19;8.27;;;1.90;;
16426;SDS011;8322;-33.900;151.170;2023-04-01T04:43:50;7.40;;;1.75;;
16426;SDS011;8322;-33.900;151.170;2023-04-01T04:46:19;4.82;;;1.65;;
16426;SDS011;8322;-33.900;151.170;2023-04-01T04:48:49;6.40;;;1.50;;
16426;SDS011;8322;-33.900;151.170;2023-04-01T04:51:19;4.72;;;1.65;;
16426;SDS011;8322;-33.900;151.170;2023-04-01T04:53:48;5.40;;;2.03;;
16426;SDS011;8322;-33.900;151.170;2023-04-01T04:56:20;8.63;;;3.28;;
16426;SDS011;8322;-33.900;151.170;2023-04-01T04:58:51;7.72;;;1.65;;
16426;SDS011;8322;-33.900;151.170;2023-04-01T05:01:21;5.13;;;1.67;;
16426;SDS011;8322;-33.900;151.170;2023-04-01T05:03:50;8.38;;;1.90;;
16426;SDS011;8322;-33.900;151.170;2023-04-01T05:06:20;7.22;;;1.67;;
16426;SDS011;8322;-33.900;151.170;2023-04-01T05:08:51;5.90;;;1.65;;
16426;SDS011;8322;-33.900;151.170;2023-04-01T05:11:23;9.30;;;1.70;;
16426;SDS011;8322;-33.900;151.170;2023-04-01T05:13:53;8.15;;;1.90;;
16426;SDS011;8322;-33.900;151.170;2023-04-01T05:16:22;6.57;;;2.08;;
16426;SDS011;8322;-33.900;151.170;2023-04-01T05:18:52;6.35;;;1.83;;
16426;SDS011;8322;-33.900;151.170;2023-04-01T05:21:21;5.80;;;1.67;;
16426;SDS011;8322;-33.900;151.170;2023-04-01T05:23:50;9.98;;;1.70;;
16426;SDS011;8322;-33.900;151.170;2023-04-01T05:26:20;5.20;;;1.55;;
16426;SDS011;8322;-33.900;151.170;2023-04-01T05:28:51;4.47;;;1.58;;
16426;SDS011;8322;-33.900;151.170;2023-04-01T05:31:21;5.38;;;1.60;;
16426;SDS011;8322;-33.900;151.170;2023-04-01T05:33:51;5.53;;;1.65;;
16426;SDS011;8322;-33.900;151.170;2023-04-01T05:36:21;6.57;;;1.42;;
16426;SDS011;8322;-33.900;151.170;2023-04-01T05:38:50;6.40;;;1.40;;
16426;SDS011;8322;-33.900;151.170;2023-04-01T05:41:20;8.65;;;2.10;;
16426;SDS011;8322;-33.900;151.170;2023-04-01T05:43:49;9.27;;;1.73;;
16426;SDS011;8322;-33.900;151.170;2023-04-01T05:46:20;4.13;;;1.38;;
16426;SDS011;8322;-33.900;151.170;2023-04-01T05:48:50;5.30;;;1.40;;
16426;SDS011;8322;-33.900;151.170;2023-04-01T05:51:19;9.13;;;1.30;;
16426;SDS011;8322;-33.900;151.170;2023-04-01T05:53:49;5.97;;;1.65;;
16426;SDS011;8322;-33.900;151.170;2023-04-01T05:56:19;6.70;;;1.38;;
16426;SDS011;8322;-33.900;151.170;2023-04-01T05:58:50;4.85;;;1.30;;
16426;SDS011;8322;-33.900;151.170;2023-04-01T06:01:21;8.20;;;1.67;;
16426;SDS011;8322;-33.900;151.170;2023-04-01T06:03:51;6.47;;;1.60;;
16426;SDS011;8322;-33.900;151.170;2023-04-01T06:06:23;10.45;;;1.40;;
16426;SDS011;8322;-33.900;151.170;2023-04-01T06:08:53;4.93;;;1.30;;
16426;SDS011;8322;-33.900;151.170;2023-04-01T06:11:26;7.50;;;1.60;;
16426;SDS011;8322;-33.900;151.170;2023-04-01T06:14:00;6.05;;;1.33;;
16426;SDS011;8322;-33.900;151.170;2023-04-01T06:16:39;6.68;;;1.48;;
16426;SDS011;8322;-33.900;151.170;2023-04-01T06:19:23;6.85;;;1.67;;
16426;SDS011;8322;-33.900;151.170;2023-04-01T06:24:51;4.20;;;1.33;;
16426;SDS011;8322;-33.900;151.170;2023-04-01T06:27:28;6.68;;;1.38;;
16426;SDS011;8322;-33.900;151.170;2023-04-01T06:30:05;5.63;;;1.63;;
16426;SDS011;8322;-33.900;151.170;2023-04-01T06:35:38;8.10;;;2.55;;
16426;SDS011;8322;-33.900;151.170;2023-04-01T06:38:14;7.60;;;2.20;;
16426;SDS011;8322;-33.900;151.170;2023-04-01T06:40:52;5.97;;;1.52;;
16426;SDS011;8322;-33.900;151.170;2023-04-01T06:43:24;3.97;;;1.40;;
16426;SDS011;8322;-33.900;151.170;2023-04-01T06:45:55;5.68;;;1.70;;
16426;SDS011;8322;-33.900;151.170;2023-04-01T06:48:32;7.20;;;1.38;;
16426;SDS011;8322;-33.900;151.170;2023-04-01T06:51:09;5.45;;;1.50;;
16426;SDS011;8322;-33.900;151.170;2023-04-01T06:53:43;3.38;;;1.60;;
16426;SDS011;8322;-33.900;151.170;2023-04-01T06:56:16;8.85;;;2.15;;
16426;SDS011;8322;-33.900;151.170;2023-04-01T06:58:46;8.45;;;1.95;;
16426;SDS011;8322;-33.900;151.170;2023-04-01T07:01:19;4.65;;;2.40;;
16426;SDS011;8322;-33.900;151.170;2023-04-01T07:03:51;6.65;;;2.20;;
16426;SDS011;8322;-33.900;151.170;2023-04-01T07:06:25;4.22;;;1.83;;
16426;SDS011;8322;-33.900;151.170;2023-04-01T07:08:56;6.80;;;1.70;;
16426;SDS011;8322;-33.900;151.170;2023-04-01T07:11:28;4.60;;;1.40;;
16426;SDS011;8322;-33.900;151.170;2023-04-01T07:13:59;5.63;;;1.45;;
16426;SDS011;8322;-33.900;151.170;2023-04-01T07:16:30;7.50;;;1.67;;
16426;SDS011;8322;-33.900;151.170;2023-04-01T07:19:02;7.75;;;1.33;;
16426;SDS011;8322;-33.900;151.170;2023-04-01T07:21:35;6.35;;;1.45;;
16426;SDS011;8322;-33.900;151.170;2023-04-01T07:24:06;7.35;;;1.60;;
16426;SDS011;8322;-33.900;151.170;2023-04-01T07:26:38;3.90;;;1.10;;
16426;SDS011;8322;-33.900;151.170;2023-04-01T07:29:09;3.80;;;1.02;;
16426;SDS011;8322;-33.900;151.170;2023-04-01T07:31:43;5.25;;;0.90;;
16426;SDS011;8322;-33.900;151.170;2023-04-01T07:34:16;7.05;;;1.60;;
16426;SDS011;8322;-33.900;151.170;2023-04-01T07:36:50;10.35;;;3.55;;
16426;SDS011;8322;-33.900;151.170;2023-04-01T07:39:26;10.00;;;3.10;;
16426;SDS011;8322;-33.900;151.170;2023-04-01T07:42:00;8.00;;;2.45;;
16426;SDS011;8322;-33.900;151.170;2023-04-01T07:44:32;6.32;;;2.05;;
16426;SDS011;8322;-33.900;151.170;2023-04-01T07:47:08;6.43;;;2.00;;
16426;SDS011;8322;-33.900;151.170;2023-04-01T07:49:42;13.60;;;2.90;;
16426;SDS011;8322;-33.900;151.170;2023-04-01T07:52:18;9.10;;;2.70;;
16426;SDS011;8322;-33.900;151.170;2023-04-01T07:54:52;7.53;;;2.00;;
16426;SDS011;8322;-33.900;151.170;2023-04-01T07:57:23;4.72;;;1.65;;
16426;SDS011;8322;-33.900;151.170;2023-04-01T07:59:58;5.35;;;1.77;;
16426;SDS011;8322;-33.900;151.170;2023-04-01T08:02:30;9.35;;;2.40;;
16426;SDS011;8322;-33.900;151.170;2023-04-01T08:05:04;6.50;;;2.00;;
16426;SDS011;8322;-33.900;151.170;2023-04-01T08:07:39;5.00;;;1.95;;
16426;SDS011;8322;-33.900;151.170;2023-04-01T08:10:11;5.68;;;2.00;;
16426;SDS011;8322;-33.900;151.170;2023-04-01T08:12:45;3.88;;;1.40;;
16426;SDS011;8322;-33.900;151.170;2023-04-01T08:15:18;7.25;;;1.65;;
16426;SDS011;8322;-33.900;151.170;2023-04-01T08:17:53;6.65;;;1.50;;
16426;SDS011;8322;-33.900;151.170;2023-04-01T08:20:28;5.13;;;1.40;;
16426;SDS011;8322;-33.900;151.170;2023-04-01T08:23:01;3.38;;;1.13;;
16426;SDS011;8322;-33.900;151.170;2023-04-01T08:25:34;7.10;;;1.80;;
16426;SDS011;8322;-33.900;151.170;2023-04-01T08:28:09;4.88;;;1.40;;
16426;SDS011;8322;-33.900;151.170;2023-04-01T08:30:41;5.28;;;1.63;;
16426;SDS011;8322;-33.900;151.170;2023-04-01T08:33:12;5.95;;;1.42;;
16426;SDS011;8322;-33.900;151.170;2023-04-01T08:35:44;5.72;;;1.67;;
16426;SDS011;8322;-33.900;151.170;2023-04-01T08:38:18;7.00;;;2.28;;
16426;SDS011;8322;-33.900;151.170;2023-04-01T08:43:43;5.28;;;2.65;;
16426;SDS011;8322;-33.900;151.170;2023-04-01T08:46:31;5.57;;;2.90;;
16426;SDS011;8322;-33.900;151.170;2023-04-01T08:49:10;4.57;;;1.77;;
16426;SDS011;8322;-33.900;151.170;2023-04-01T08:51:49;6.95;;;1.70;;
16426;SDS011;8322;-33.900;151.170;2023-04-01T08:54:27;3.55;;;1.60;;
16426;SDS011;8322;-33.900;151.170;2023-04-01T08:57:00;7.00;;;1.70;;
16426;SDS011;8322;-33.900;151.170;2023-04-01T08:59:35;7.05;;;2.13;;
16426;SDS011;8322;-33.900;151.170;2023-04-01T09:07:43;7.30;;;1.85;;
16426;SDS011;8322;-33.900;151.170;2023-04-01T09:13:13;7.13;;;1.60;;
16426;SDS011;8322;-33.900;151.170;2023-04-01T09:18:35;5.85;;;1.48;;
16426;SDS011;8322;-33.900;151.170;2023-04-01T09:21:13;7.07;;;1.70;;
16426;SDS011;8322;-33.900;151.170;2023-04-01T09:23:46;3.78;;;1.60;;
16426;SDS011;8322;-33.900;151.170;2023-04-01T09:26:26;4.47;;;1.58;;
16426;SDS011;8322;-33.900;151.170;2023-04-01T09:29:02;10.02;;;1.65;;
16426;SDS011;8322;-33.900;151.170;2023-04-01T09:31:44;4.93;;;1.40;;
16426;SDS011;8322;-33.900;151.170;2023-04-01T09:40:09;6.45;;;1.63;;
16426;SDS011;8322;-33.900;151.170;2023-04-01T09:42:44;5.75;;;1.60;;
16426;SDS011;8322;-33.900;151.170;2023-04-01T09:45:20;5.35;;;1.48;;
16426;SDS011;8322;-33.900;151.170;2023-04-01T09:47:54;3.72;;;1.40;;
16426;SDS011;8322;-33.900;151.170;2023-04-01T09:50:29;5.65;;;1.67;;
16426;SDS011;8322;-33.900;151.170;2023-04-01T09:53:03;5.90;;;1.60;;
16426;SDS011;8322;-33.900;151.170;2023-04-01T09:55:51;6.13;;;1.35;;
16426;SDS011;8322;-33.900;151.170;2023-04-01T10:07:09;5.43;;;1.52;;
16426;SDS011;8322;-33.900;151.170;2023-04-01T10:09:51;4.20;;;1.20;;
16426;SDS011;8322;-33.900;151.170;2023-04-01T10:12:41;3.65;;;1.30;;
16426;SDS011;8322;-33.900;151.170;2023-04-01T10:15:30;5.43;;;1.40;;
16426;SDS011;8322;-33.900;151.170;2023-04-01T10:20:58;5.28;;;1.50;;
16426;SDS011;8322;-33.900;151.170;2023-04-01T10:23:40;4.32;;;1.30;;
16426;SDS011;8322;-33.900;151.170;2023-04-01T10:26:34;5.07;;;1.20;;
16426;SDS011;8322;-33.900;151.170;2023-04-01T10:29:23;4.13;;;1.25;;
16426;SDS011;8322;-33.900;151.170;2023-04-01T10:37:36;6.45;;;1.75;;
16426;SDS011;8322;-33.900;151.170;2023-04-01T10:43:15;4.63;;;1.30;;
16426;SDS011;8322;-33.900;151.170;2023-04-01T10:48:41;5.22;;;1.60;;
16426;SDS011;8322;-33.900;151.170;2023-04-01T10:51:22;6.15;;;1.52;;
16426;SDS011;8322;-33.900;151.170;2023-04-01T10:56:46;4.72;;;1.50;;
16426;SDS011;8322;-33.900;151.170;2023-04-01T11:11:00;5.78;;;1.73;;
16426;SDS011;8322;-33.900;151.170;2023-04-01T11:19:31;5.20;;;1.55;;
16426;SDS011;8322;-33.900;151.170;2023-04-01T11:24:57;4.18;;;1.45;;
16426;SDS011;8322;-33.900;151.170;2023-04-01T11:30:18;5.40;;;1.23;;
16426;SDS011;8322;-33.900;151.170;2023-04-01T11:32:53;6.60;;;1.48;;
16426;SDS011;8322;-33.900;151.170;2023-04-01T11:35:32;3.72;;;1.30;;
16426;SDS011;8322;-33.900;151.170;2023-04-01T11:38:17;4.72;;;1.20;;
16426;SDS011;8322;-33.900;151.170;2023-04-01T11:40:51;4.38;;;1.33;;
16426;SDS011;8322;-33.900;151.170;2023-04-01T11:43:24;3.78;;;1.17;;
16426;SDS011;8322;-33.900;151.170;2023-04-01T11:45:59;3.05;;;1.45;;
16426;SDS011;8322;-33.900;151.170;2023-04-01T11:48:52;2.47;;;1.27;;
16426;SDS011;8322;-33.900;151.170;2023-04-01T11:51:33;3.47;;;1.20;;
16426;SDS011;8322;-33.900;151.170;2023-04-01T11:54:10;5.03;;;1.30;;
16426;SDS011;8322;-33.900;151.170;2023-04-01T11:56:48;4.43;;;1.35;;
16426;SDS011;8322;-33.900;151.170;2023-04-01T11:59:40;4.72;;;1.50;;
16426;SDS011;8322;-33.900;151.170;2023-04-01T12:02:14;2.35;;;1.30;;
16426;SDS011;8322;-33.900;151.170;2023-04-01T12:04:51;4.38;;;1.30;;
16426;SDS011;8322;-33.900;151.170;2023-04-01T12:07:27;4.45;;;1.35;;
16426;SDS011;8322;-33.900;151.170;2023-04-01T12:10:02;5.25;;;1.30;;
16426;SDS011;8322;-33.900;151.170;2023-04-01T12:12:36;3.63;;;1.30;;
16426;SDS011;8322;-33.900;151.170;2023-04-01T12:15:17;3.83;;;1.08;;
16426;SDS011;8322;-33.900;151.170;2023-04-01T12:17:52;3.20;;;1.20;;
16426;SDS011;8322;-33.900;151.170;2023-04-01T12:20:36;4.88;;;1.88;;
16426;SDS011;8322;-33.900;151.170;2023-04-01T12:23:10;4.03;;;1.40;;
16426;SDS011;8322;-33.900;151.170;2023-04-01T12:28:36;3.38;;;1.20;;
16426;SDS011;8322;-33.900;151.170;2023-04-01T12:31:14;3.33;;;1.10;;
16426;SDS011;8322;-33.900;151.170;2023-04-01T12:33:53;5.50;;;1.30;;
16426;SDS011;8322;-33.900;151.170;2023-04-01T12:36:33;3.72;;;1.35;;
16426;SDS011;8322;-33.900;151.170;2023-04-01T12:41:52;2.13;;;1.00;;
16426;SDS011;8322;-33.900;151.170;2023-04-01T12:44:27;1.80;;;1.10;;
16426;SDS011;8322;-33.900;151.170;2023-04-01T12:47:10;5.32;;;1.65;;
16426;SDS011;8322;-33.900;151.170;2023-04-01T12:49:54;3.83;;;1.13;;
16426;SDS011;8322;-33.900;151.170;2023-04-01T12:52:26;7.38;;;1.13;;
16426;SDS011;8322;-33.900;151.170;2023-04-01T12:55:02;5.05;;;1.25;;
16426;SDS011;8322;-33.900;151.170;2023-04-01T13:00:32;3.97;;;1.10;;
16426;SDS011;8322;-33.900;151.170;2023-04-01T13:03:09;3.75;;;1.48;;
16426;SDS011;8322;-33.900;151.170;2023-04-01T13:08:32;3.35;;;1.10;;
16426;SDS011;8322;-33.900;151.170;2023-04-01T13:11:09;5.00;;;1.20;;
16426;SDS011;8322;-33.900;151.170;2023-04-01T13:16:31;3.80;;;1.20;;
16426;SDS011;8322;-33.900;151.170;2023-04-01T13:19:04;3.80;;;1.48;;
16426;SDS011;8322;-33.900;151.170;2023-04-01T13:21:39;2.80;;;1.02;;
16426;SDS011;8322;-33.900;151.170;2023-04-01T13:24:18;3.55;;;1.60;;
16426;SDS011;8322;-33.900;151.170;2023-04-01T13:26:53;3.90;;;1.15;;
16426;SDS011;8322;-33.900;151.170;2023-04-01T13:29:24;4.15;;;1.10;;
16426;SDS011;8322;-33.900;151.170;2023-04-01T13:32:02;5.30;;;1.30;;
16426;SDS011;8322;-33.900;151.170;2023-04-01T13:34:36;3.25;;;1.15;;
16426;SDS011;8322;-33.900;151.170;2023-04-01T13:37:12;3.67;;;1.25;;
16426;SDS011;8322;-33.900;151.170;2023-04-01T13:39:52;5.05;;;1.40;;
16426;SDS011;8322;-33.900;151.170;2023-04-01T13:42:26;5.85;;;1.25;;
16426;SDS011;8322;-33.900;151.170;2023-04-01T13:45:00;2.95;;;1.05;;
16426;SDS011;8322;-33.900;151.170;2023-04-01T13:50:18;5.43;;;1.30;;
16426;SDS011;8322;-33.900;151.170;2023-04-01T13:53:05;6.63;;;1.27;;
16426;SDS011;8322;-33.900;151.170;2023-04-01T14:01:20;7.93;;;1.50;;
16426;SDS011;8322;-33.900;151.170;2023-04-01T14:04:06;4.97;;;1.20;;
16426;SDS011;8322;-33.900;151.170;2023-04-01T14:06:41;10.50;;;1.73;;
16426;SDS011;8322;-33.900;151.170;2023-04-01T14:09:31;7.05;;;1.30;;
16426;SDS011;8322;-33.900;151.170;2023-04-01T14:12:03;9.73;;;1.85;;
16426;SDS011;8322;-33.900;151.170;2023-04-01T14:14:37;8.60;;;1.60;;
16426;SDS011;8322;-33.900;151.170;2023-04-01T14:17:16;15.52;;;1.63;;
16426;SDS011;8322;-33.900;151.170;2023-04-01T14:19:56;12.43;;;1.98;;
16426;SDS011;8322;-33.900;151.170;2023-04-01T14:22:32;7.63;;;1.38;;
16426;SDS011;8322;-33.900;151.170;2023-04-01T14:27:50;8.32;;;1.85;;
16426;SDS011;8322;-33.900;151.170;2023-04-01T14:30:32;7.05;;;1.70;;
16426;SDS011;8322;-33.900;151.170;2023-04-01T14:33:10;8.10;;;1.48;;
16426;SDS011;8322;-33.900;151.170;2023-04-01T14:35:44;7.25;;;1.60;;
16426;SDS011;8322;-33.900;151.170;2023-04-01T14:41:17;4.97;;;1.25;;
16426;SDS011;8322;-33.900;151.170;2023-04-01T14:43:51;6.57;;;1.60;;
16426;SDS011;8322;-33.900;151.170;2023-04-01T14:46:28;6.78;;;1.58;;
16426;SDS011;8322;-33.900;151.170;2023-04-01T14:49:02;9.52;;;1.85;;
16426;SDS011;8322;-33.900;151.170;2023-04-01T14:51:33;10.40;;;1.77;;
16426;SDS011;8322;-33.900;151.170;2023-04-01T14:54:04;8.95;;;1.42;;
16426;SDS011;8322;-33.900;151.170;2023-04-01T14:56:35;8.02;;;1.40;;
16426;SDS011;8322;-33.900;151.170;2023-04-01T14:59:07;6.78;;;1.50;;
16426;SDS011;8322;-33.900;151.170;2023-04-01T15:01:39;8.93;;;1.50;;
16426;SDS011;8322;-33.900;151.170;2023-04-01T15:04:22;9.00;;;1.88;;
16426;SDS011;8322;-33.900;151.170;2023-04-01T15:07:01;7.90;;;1.33;;
16426;SDS011;8322;-33.900;151.170;2023-04-01T15:09:33;10.25;;;1.75;;
16426;SDS011;8322;-33.900;151.170;2023-04-01T15:12:10;7.25;;;1.70;;
16426;SDS011;8322;-33.900;151.170;2023-04-01T15:14:47;4.75;;;1.45;;
16426;SDS011;8322;-33.900;151.170;2023-04-01T15:17:22;5.82;;;1.10;;
16426;SDS011;8322;-33.900;151.170;2023-04-01T15:20:01;8.15;;;1.42;;
16426;SDS011;8322;-33.900;151.170;2023-04-01T15:22:39;6.03;;;1.38;;
16426;SDS011;8322;-33.900;151.170;2023-04-01T15:25:21;8.15;;;1.40;;
16426;SDS011;8322;-33.900;151.170;2023-04-01T15:27:54;8.43;;;1.60;;
16426;SDS011;8322;-33.900;151.170;2023-04-01T15:30:28;6.95;;;1.60;;
16426;SDS011;8322;-33.900;151.170;2023-04-01T15:33:04;9.65;;;1.52;;
16426;SDS011;8322;-33.900;151.170;2023-04-01T15:35:41;11.93;;;2.00;;
16426;SDS011;8322;-33.900;151.170;2023-04-01T15:38:16;13.77;;;1.98;;
16426;SDS011;8322;-33.900;151.170;2023-04-01T15:40:48;9.23;;;1.50;;
16426;SDS011;8322;-33.900;151.170;2023-04-01T15:43:24;11.10;;;1.65;;
16426;SDS011;8322;-33.900;151.170;2023-04-01T15:45:58;8.38;;;1.80;;
16426;SDS011;8322;-33.900;151.170;2023-04-01T15:51:43;8.52;;;1.13;;
16426;SDS011;8322;-33.900;151.170;2023-04-01T15:54:23;6.47;;;1.15;;
16426;SDS011;8322;-33.900;151.170;2023-04-01T15:57:03;8.90;;;1.55;;
16426;SDS011;8322;-33.900;151.170;2023-04-01T15:59:41;7.75;;;1.50;;
16426;SDS011;8322;-33.900;151.170;2023-04-01T16:02:18;7.93;;;1.30;;
16426;SDS011;8322;-33.900;151.170;2023-04-01T16:04:53;8.00;;;1.35;;
16426;SDS011;8322;-33.900;151.170;2023-04-01T16:10:19;8.20;;;1.58;;
16426;SDS011;8322;-33.900;151.170;2023-04-01T16:12:54;13.30;;;1.60;;
16426;SDS011;8322;-33.900;151.170;2023-04-01T16:15:29;5.07;;;1.27;;
16426;SDS011;8322;-33.900;151.170;2023-04-01T16:18:09;14.05;;;1.40;;
16426;SDS011;8322;-33.900;151.170;2023-04-01T16:20:48;5.45;;;1.02;;
16426;SDS011;8322;-33.900;151.170;2023-04-01T16:23:22;4.65;;;0.82;;
16426;SDS011;8322;-33.900;151.170;2023-04-01T16:25:57;6.40;;;1.00;;
16426;SDS011;8322;-33.900;151.170;2023-04-01T16:28:29;7.43;;;1.00;;
16426;SDS011;8322;-33.900;151.170;2023-04-01T16:31:03;4.32;;;0.80;;
16426;SDS011;8322;-33.900;151.170;2023-04-01T16:33:35;2.78;;;0.90;;
16426;SDS011;8322;-33.900;151.170;2023-04-01T16:36:09;4.15;;;1.02;;
16426;SDS011;8322;-33.900;151.170;2023-04-01T16:38:40;7.78;;;0.93;;
16426;SDS011;8322;-33.900;151.170;2023-04-01T16:41:14;6.45;;;1.20;;
16426;SDS011;8322;-33.900;151.170;2023-04-01T16:43:45;6.00;;;1.15;;
16426;SDS011;8322;-33.900;151.170;2023-04-01T16:46:33;5.78;;;1.27;;
16426;SDS011;8322;-33.900;151.170;2023-04-01T16:49:04;16.00;;;1.60;;